createdAt,value
2023-03-29T00:01:10.127Z,6.41
2023-03-29T00:03:39.514Z,6.42
2023-03-29T00:06:08.532Z,6.41
2023-03-29T00:08:40.025Z,6.41
2023-03-29T00:11:08.786Z,6.38
2023-03-29T00:13:38.187Z,6.30
2023-03-29T00:16:07.268Z,6.30
2023-03-29T00:18:36.122Z,6.28
2023-03-29T00:21:05.316Z,6.27
2023-03-29T00:23:33.947Z,6.28
2023-03-29T00:26:07.180Z,6.26
2023-03-29T00:28:36.486Z,6.24
2023-03-29T00:31:08.328Z,6.30
2023-03-29T00:33:37.101Z,6.24
2023-03-29T00:36:07.339Z,6.24
2023-03-29T00:38:36.797Z,6.18
2023-03-29T00:41:07.796Z,6.12
2023-03-29T00:43:56.966Z,6.17
2023-03-29T00:46:27.175Z,6.10
2023-03-29T00:48:58.126Z,6.08
2023-03-29T00:51:29.327Z,6.22
2023-03-29T00:54:00.810Z,6.12
2023-03-29T00:56:34.766Z,6.03
2023-03-29T00:59:05.749Z,6.15
2023-03-29T01:01:38.110Z,6.09
2023-03-29T01:04:09.464Z,6.03
2023-03-29T01:06:39.265Z,6.07
2023-03-29T01:09:10.306Z,6.02
2023-03-29T01:11:42.813Z,5.98
2023-03-29T01:14:15.256Z,5.93
2023-03-29T01:16:43.891Z,5.96
2023-03-29T01:19:15.379Z,5.98
2023-03-29T01:21:46.000Z,6.06
2023-03-29T01:24:34.333Z,6.07
2023-03-29T01:27:11.310Z,6.06
2023-03-29T01:29:45.541Z,6.07
2023-03-29T01:32:17.104Z,6.05
2023-03-29T01:34:50.269Z,6.08
2023-03-29T01:37:24.564Z,6.05
2023-03-29T01:39:53.725Z,6.03
2023-03-29T01:42:33.247Z,6.03
2023-03-29T01:45:09.760Z,6.02
2023-03-29T01:47:46.476Z,6.04
2023-03-29T01:50:18.369Z,5.99
2023-03-29T01:52:51.319Z,6.02
2023-03-29T01:55:23.595Z,5.85
2023-03-29T01:57:53.976Z,5.86
2023-03-29T02:00:27.442Z,5.90
2023-03-29T02:03:00.085Z,5.92
2023-03-29T02:05:30.617Z,6.00
2023-03-29T02:08:00.583Z,6.00
2023-03-29T02:10:29.493Z,5.87
2023-03-29T02:12:58.496Z,5.92
2023-03-29T02:15:28.735Z,5.82
2023-03-29T02:17:57.789Z,5.80
2023-03-29T02:20:29.146Z,5.91
2023-03-29T02:23:03.191Z,6.04
2023-03-29T02:25:32.391Z,5.91
2023-03-29T02:28:01.794Z,5.90
2023-03-29T02:30:34.535Z,5.97
2023-03-29T02:33:06.957Z,5.95
2023-03-29T02:35:39.197Z,5.93
2023-03-29T02:38:10.499Z,5.90
2023-03-29T02:40:40.127Z,5.88
2023-03-29T02:43:09.200Z,5.91
2023-03-29T02:45:40.496Z,5.89
2023-03-29T02:48:11.679Z,5.85
2023-03-29T02:50:41.615Z,5.86
2023-03-29T02:53:14.149Z,5.92
2023-03-29T02:55:42.971Z,5.92
2023-03-29T02:58:13.397Z,5.93
2023-03-29T03:00:45.718Z,5.85
2023-03-29T03:03:15.546Z,5.85
2023-03-29T03:05:44.452Z,5.79
2023-03-29T03:08:13.968Z,5.80
2023-03-29T03:10:42.698Z,5.67
2023-03-29T03:13:11.328Z,5.74
2023-03-29T03:15:42.596Z,5.78
2023-03-29T03:18:12.688Z,5.80
2023-03-29T03:20:41.365Z,5.68
2023-03-29T03:23:10.618Z,5.80
2023-03-29T03:25:39.228Z,5.80
2023-03-29T03:28:07.948Z,5.83
2023-03-29T03:30:36.539Z,5.85
2023-03-29T03:33:05.140Z,5.85
2023-03-29T03:35:35.629Z,5.91
2023-03-29T03:38:04.273Z,5.87
2023-03-29T03:40:33.288Z,5.91
2023-03-29T03:43:01.978Z,5.93
2023-03-29T03:45:31.275Z,5.90
2023-03-29T03:47:59.918Z,5.98
2023-03-29T03:50:28.622Z,6.05
2023-03-29T03:52:58.601Z,6.01
2023-03-29T03:55:29.944Z,6.05
2023-03-29T03:57:58.624Z,5.97
2023-03-29T04:00:27.398Z,5.98
2023-03-29T04:02:56.290Z,6.12
2023-03-29T04:05:25.364Z,6.10
2023-03-29T04:07:54.264Z,6.07
2023-03-29T04:10:24.550Z,6.19
2023-03-29T04:12:53.185Z,6.16
2023-03-29T04:15:22.063Z,6.10
2023-03-29T04:17:50.822Z,6.11
2023-03-29T04:20:19.669Z,6.13
2023-03-29T04:22:48.464Z,6.12
2023-03-29T04:25:17.373Z,6.13
2023-03-29T04:27:47.358Z,6.10
2023-03-29T04:30:16.937Z,6.14
2023-03-29T04:32:45.571Z,6.13
2023-03-29T04:35:14.401Z,6.16
2023-03-29T04:37:43.183Z,6.24
2023-03-29T04:40:14.305Z,6.24
2023-03-29T04:42:44.282Z,6.26
2023-03-29T04:45:14.895Z,6.22
2023-03-29T04:47:43.610Z,6.29
2023-03-29T04:50:12.942Z,6.30
2023-03-29T04:52:42.084Z,6.27
2023-03-29T04:55:12.082Z,6.26
2023-03-29T04:57:41.288Z,6.29
2023-03-29T05:00:15.135Z,6.30
2023-03-29T05:02:46.122Z,6.36
2023-03-29T05:05:15.267Z,6.30
2023-03-29T05:07:44.336Z,6.29
2023-03-29T05:10:13.598Z,6.34
2023-03-29T05:12:42.204Z,6.36
2023-03-29T05:15:11.682Z,6.41
2023-03-29T05:17:40.758Z,6.42
2023-03-29T05:20:13.003Z,6.37
2023-03-29T05:22:41.679Z,6.44
2023-03-29T05:25:13.246Z,6.54
2023-03-29T05:27:42.574Z,6.55
2023-03-29T05:30:12.648Z,6.39
2023-03-29T05:32:41.665Z,6.41
2023-03-29T05:35:11.932Z,6.60
2023-03-29T05:37:40.562Z,6.56
2023-03-29T05:40:10.522Z,6.54
2023-03-29T05:42:39.229Z,6.57
2023-03-29T05:45:09.193Z,6.57
2023-03-29T05:47:37.925Z,6.45
2023-03-29T05:50:09.638Z,6.41
2023-03-29T05:52:41.100Z,6.45
2023-03-29T05:55:10.707Z,6.48
2023-03-29T05:57:39.613Z,6.50
2023-03-29T06:00:16.878Z,6.55
2023-03-29T06:02:45.694Z,6.60
2023-03-29T06:05:14.918Z,6.66
2023-03-29T06:07:45.068Z,6.69
2023-03-29T06:10:14.097Z,6.65
2023-03-29T06:12:42.942Z,6.76
2023-03-29T06:15:13.419Z,6.75
2023-03-29T06:17:42.166Z,6.77
2023-03-29T06:20:11.869Z,6.84
2023-03-29T06:22:41.249Z,6.88
2023-03-29T06:25:12.256Z,6.93
2023-03-29T06:27:40.850Z,6.94
2023-03-29T06:30:10.233Z,6.93
2023-03-29T06:32:38.906Z,6.99
2023-03-29T06:35:08.552Z,7.05
2023-03-29T06:37:37.353Z,7.10
2023-03-29T06:40:09.330Z,7.13
2023-03-29T06:42:40.522Z,7.15
2023-03-29T06:45:10.355Z,7.22
2023-03-29T06:47:38.981Z,7.16
2023-03-29T06:50:08.682Z,7.15
2023-03-29T06:52:42.504Z,7.16
2023-03-29T06:55:12.028Z,7.14
2023-03-29T06:57:42.547Z,7.22
2023-03-29T07:00:19.072Z,7.19
2023-03-29T07:02:48.159Z,7.26
2023-03-29T07:05:17.322Z,7.41
2023-03-29T07:07:56.835Z,7.45
2023-03-29T07:10:28.095Z,7.55
2023-03-29T07:12:58.127Z,7.60
2023-03-29T07:15:27.560Z,7.66
2023-03-29T07:17:57.523Z,7.73
2023-03-29T07:20:26.997Z,7.84
2023-03-29T07:22:56.088Z,7.93
2023-03-29T07:25:27.454Z,7.97
2023-03-29T07:27:56.512Z,8.03
2023-03-29T07:30:31.678Z,8.10
2023-03-29T07:33:01.145Z,8.15
2023-03-29T07:35:30.854Z,8.19
2023-03-29T07:37:59.735Z,8.23
2023-03-29T07:40:28.482Z,8.32
2023-03-29T07:42:58.825Z,8.36
2023-03-29T07:45:29.930Z,8.39
2023-03-29T07:48:02.104Z,8.46
2023-03-29T07:50:32.594Z,8.54
2023-03-29T07:53:02.958Z,8.57
2023-03-29T07:55:31.961Z,8.62
2023-03-29T07:58:01.549Z,8.69
2023-03-29T08:00:32.979Z,8.72
2023-03-29T08:03:03.762Z,8.78
2023-03-29T08:05:40.739Z,8.83
2023-03-29T08:08:10.899Z,8.86
2023-03-29T08:10:39.737Z,8.89
2023-03-29T08:13:09.797Z,8.95
2023-03-29T08:15:41.981Z,9.01
2023-03-29T08:18:10.684Z,9.03
2023-03-29T08:20:39.390Z,9.13
2023-03-29T08:23:08.204Z,9.22
2023-03-29T08:25:37.282Z,9.27
2023-03-29T08:28:05.934Z,9.34
2023-03-29T08:30:34.644Z,9.38
2023-03-29T08:33:04.757Z,9.43
2023-03-29T08:35:33.472Z,9.51
2023-03-29T08:38:02.211Z,9.50
2023-03-29T08:40:31.696Z,9.58
2023-03-29T08:43:22.916Z,9.59
2023-03-29T08:46:02.673Z,9.58
2023-03-29T08:48:35.051Z,9.63
2023-03-29T08:51:08.644Z,9.66
2023-03-29T08:53:44.111Z,9.64
2023-03-29T08:56:14.736Z,9.70
2023-03-29T08:58:43.541Z,9.74
2023-03-29T09:01:12.253Z,9.79
2023-03-29T09:03:46.187Z,9.86
2023-03-29T09:06:15.616Z,9.93
2023-03-29T09:08:46.864Z,10.03
2023-03-29T09:11:28.457Z,10.14
2023-03-29T09:14:03.635Z,10.18
2023-03-29T09:16:37.966Z,10.24
2023-03-29T09:19:17.774Z,10.32
2023-03-29T09:21:51.575Z,10.37
2023-03-29T09:24:38.770Z,10.44
2023-03-29T09:27:10.543Z,10.60
2023-03-29T09:29:51.293Z,10.65
2023-03-29T09:32:23.410Z,10.70
2023-03-29T09:34:59.441Z,10.79
2023-03-29T09:37:32.718Z,10.85
2023-03-29T09:40:03.212Z,10.88
2023-03-29T09:42:33.775Z,10.95
2023-03-29T09:45:08.474Z,10.99
2023-03-29T09:47:40.712Z,11.09
2023-03-29T09:50:27.739Z,11.15
2023-03-29T09:52:59.617Z,11.30
2023-03-29T09:55:31.047Z,11.31
2023-03-29T09:58:02.439Z,11.38
2023-03-29T10:00:31.101Z,11.50
2023-03-29T10:03:00.342Z,11.61
2023-03-29T10:05:32.497Z,11.74
2023-03-29T10:08:02.262Z,11.82
2023-03-29T10:10:32.852Z,11.96
2023-03-29T10:13:04.328Z,12.10
2023-03-29T10:15:33.247Z,12.16
2023-03-29T10:18:04.197Z,12.28
2023-03-29T10:20:36.463Z,12.46
2023-03-29T10:23:08.065Z,12.55
2023-03-29T10:25:42.155Z,12.69
2023-03-29T10:28:14.708Z,12.72
2023-03-29T10:30:43.802Z,12.83
2023-03-29T10:33:17.519Z,12.67
2023-03-29T10:35:47.990Z,12.73
2023-03-29T10:38:19.183Z,12.67
2023-03-29T10:40:48.926Z,12.76
2023-03-29T10:43:22.825Z,12.84
2023-03-29T10:45:53.751Z,12.97
2023-03-29T10:48:26.648Z,13.05
2023-03-29T10:50:59.890Z,13.24
2023-03-29T10:53:30.703Z,13.39
2023-03-29T10:56:12.701Z,13.70
2023-03-29T10:58:53.103Z,13.91
2023-03-29T11:01:26.524Z,14.04
2023-03-29T11:04:04.095Z,14.15
2023-03-29T11:06:38.402Z,14.35
2023-03-29T11:09:14.147Z,14.59
2023-03-29T11:12:04.419Z,14.80
2023-03-29T11:14:42.579Z,15.03
2023-03-29T11:17:26.583Z,14.83
2023-03-29T11:20:04.455Z,14.79
2023-03-29T11:22:42.362Z,14.90
2023-03-29T11:25:21.185Z,14.94
2023-03-29T11:27:55.488Z,15.06
2023-03-29T11:30:26.889Z,15.12
2023-03-29T11:32:59.935Z,15.31
2023-03-29T11:35:37.409Z,15.38
2023-03-29T11:38:15.257Z,15.56
2023-03-29T11:40:51.416Z,15.61
2023-03-29T11:43:21.972Z,15.70
2023-03-29T11:45:53.411Z,15.69
2023-03-29T11:48:25.000Z,15.65
2023-03-29T11:50:57.695Z,15.60
2023-03-29T11:53:31.126Z,15.51
2023-03-29T11:56:05.364Z,15.43
2023-03-29T11:58:38.843Z,15.46
2023-03-29T12:01:11.327Z,15.41
2023-03-29T12:03:46.345Z,15.41
2023-03-29T12:06:18.546Z,15.22
2023-03-29T12:08:52.055Z,15.30
2023-03-29T12:11:25.545Z,15.25
2023-03-29T12:13:57.803Z,15.33
2023-03-29T12:16:28.896Z,15.36
2023-03-29T12:18:59.427Z,15.42
2023-03-29T12:21:30.206Z,15.50
2023-03-29T12:24:00.275Z,15.53
2023-03-29T12:26:38.005Z,15.59
2023-03-29T12:29:16.635Z,15.69
2023-03-29T12:31:50.288Z,15.87
2023-03-29T12:34:31.033Z,16.05
2023-03-29T12:37:07.226Z,16.15
2023-03-29T12:39:38.004Z,16.26
2023-03-29T12:42:12.608Z,16.20
2023-03-29T12:44:43.042Z,16.15
2023-03-29T12:47:19.361Z,16.19
2023-03-29T12:49:48.428Z,16.28
2023-03-29T12:52:26.925Z,16.22
2023-03-29T12:54:58.425Z,16.14
2023-03-29T12:57:29.522Z,16.12
2023-03-29T13:00:11.681Z,16.05
2023-03-29T13:02:40.608Z,15.89
2023-03-29T13:05:31.636Z,15.64
2023-03-29T13:08:00.433Z,15.58
2023-03-29T13:10:39.074Z,15.65
2023-03-29T13:13:16.568Z,15.68
2023-03-29T13:15:46.132Z,15.70
2023-03-29T13:18:37.612Z,15.69
2023-03-29T13:21:15.055Z,15.74
2023-03-29T13:23:50.202Z,15.68
2023-03-29T13:26:27.999Z,15.66
2023-03-29T13:29:16.216Z,15.65
2023-03-29T13:31:48.240Z,15.51
2023-03-29T13:34:30.957Z,15.35
2023-03-29T13:37:05.872Z,15.43
2023-03-29T13:39:36.815Z,15.38
2023-03-29T13:42:20.062Z,15.42
2023-03-29T13:44:49.761Z,15.40
2023-03-29T13:47:38.300Z,15.38
2023-03-29T13:50:13.731Z,15.31
2023-03-29T13:52:45.636Z,15.22
2023-03-29T13:55:19.374Z,15.12
2023-03-29T13:57:53.134Z,15.00
2023-03-29T14:00:25.286Z,14.93
2023-03-29T14:02:56.381Z,14.89
2023-03-29T14:05:29.660Z,14.73
2023-03-29T14:07:58.963Z,14.63
2023-03-29T14:10:30.921Z,14.56
2023-03-29T14:13:03.993Z,14.53
2023-03-29T14:15:43.936Z,14.46
2023-03-29T14:18:13.382Z,14.29
2023-03-29T14:20:44.628Z,14.26
2023-03-29T14:23:16.059Z,14.17
2023-03-29T14:25:45.023Z,14.19
2023-03-29T14:28:20.948Z,14.21
2023-03-29T14:30:52.457Z,14.24
2023-03-29T14:33:28.883Z,14.28
2023-03-29T14:35:58.640Z,14.31
2023-03-29T14:38:28.030Z,14.30
2023-03-29T14:41:00.215Z,14.24
2023-03-29T14:43:32.087Z,14.16
2023-03-29T14:46:04.477Z,13.97
2023-03-29T14:48:34.846Z,13.97
2023-03-29T14:51:03.731Z,14.02
2023-03-29T14:53:34.246Z,14.06
2023-03-29T14:56:03.373Z,14.12
2023-03-29T14:58:35.709Z,14.16
2023-03-29T15:01:09.163Z,14.12
2023-03-29T15:03:44.933Z,14.14
2023-03-29T15:06:14.235Z,14.03
2023-03-29T15:08:54.148Z,14.12
2023-03-29T15:11:31.360Z,14.18
2023-03-29T15:14:04.947Z,14.20
2023-03-29T15:16:34.368Z,14.20
2023-03-29T15:19:03.480Z,14.14
2023-03-29T15:21:34.458Z,14.18
2023-03-29T15:24:04.165Z,14.17
2023-03-29T15:26:34.388Z,14.17
2023-03-29T15:29:08.543Z,14.19
2023-03-29T15:31:38.621Z,14.19
2023-03-29T15:34:09.532Z,14.20
2023-03-29T15:36:42.176Z,14.24
2023-03-29T15:39:13.055Z,14.27
2023-03-29T15:41:42.056Z,14.28
2023-03-29T15:44:12.406Z,14.39
2023-03-29T15:46:41.741Z,14.33
2023-03-29T15:49:12.022Z,14.28
2023-03-29T15:51:41.362Z,14.26
2023-03-29T15:54:09.987Z,14.23
2023-03-29T15:56:44.714Z,14.24
2023-03-29T15:59:14.797Z,14.24
2023-03-29T16:01:43.650Z,14.23
2023-03-29T16:04:14.322Z,14.27
2023-03-29T16:06:43.785Z,14.25
2023-03-29T16:09:12.823Z,14.21
2023-03-29T16:11:42.745Z,14.19
2023-03-29T16:14:19.005Z,14.17
2023-03-29T16:16:47.825Z,14.18
2023-03-29T16:19:16.477Z,14.18
2023-03-29T16:21:45.341Z,14.19
2023-03-29T16:24:15.956Z,14.18
2023-03-29T16:26:44.728Z,14.13
2023-03-29T16:29:15.980Z,14.15
2023-03-29T16:31:44.926Z,14.20
2023-03-29T16:34:14.232Z,14.18
2023-03-29T16:36:44.046Z,14.15
2023-03-29T16:39:13.052Z,14.10
2023-03-29T16:41:42.628Z,14.12
2023-03-29T16:44:15.730Z,14.10
2023-03-29T16:46:44.903Z,14.11
2023-03-29T16:49:18.188Z,14.09
2023-03-29T16:51:48.128Z,14.00
2023-03-29T16:54:18.851Z,13.94
2023-03-29T16:56:47.597Z,13.97
2023-03-29T16:59:17.674Z,14.00
2023-03-29T17:01:46.439Z,13.91
2023-03-29T17:04:15.096Z,13.91
2023-03-29T17:06:43.741Z,13.91
2023-03-29T17:09:12.605Z,13.91
2023-03-29T17:11:41.316Z,13.94
2023-03-29T17:14:10.041Z,13.92
2023-03-29T17:16:40.131Z,13.87
2023-03-29T17:19:08.835Z,13.86
2023-03-29T17:21:37.507Z,13.85
2023-03-29T17:24:06.767Z,13.80
2023-03-29T17:26:35.497Z,13.74
2023-03-29T17:29:04.174Z,13.72
2023-03-29T17:31:34.816Z,13.63
2023-03-29T17:34:04.916Z,13.55
2023-03-29T17:36:33.760Z,13.47
2023-03-29T17:39:02.962Z,13.43
2023-03-29T17:41:31.691Z,13.41
2023-03-29T17:44:01.092Z,13.45
2023-03-29T17:46:30.184Z,13.40
2023-03-29T17:48:59.132Z,13.39
2023-03-29T17:51:29.177Z,13.33
2023-03-29T17:53:58.256Z,13.32
2023-03-29T17:56:27.301Z,13.32
2023-03-29T17:58:56.053Z,13.29
2023-03-29T18:01:24.748Z,13.28
2023-03-29T18:03:53.422Z,13.24
2023-03-29T18:06:22.168Z,13.20
2023-03-29T18:08:53.193Z,13.19
2023-03-29T18:11:24.569Z,13.23
2023-03-29T18:13:54.185Z,13.17
2023-03-29T18:16:23.366Z,13.19
2023-03-29T18:18:52.271Z,13.18
2023-03-29T18:21:21.076Z,13.12
2023-03-29T18:23:52.864Z,13.07
2023-03-29T18:26:24.168Z,13.03
2023-03-29T18:28:53.273Z,13.03
2023-03-29T18:31:22.998Z,13.01
2023-03-29T18:33:51.739Z,13.09
2023-03-29T18:36:20.481Z,13.02
2023-03-29T18:38:49.181Z,12.94
2023-03-29T18:41:17.810Z,12.93
2023-03-29T18:43:47.787Z,12.90
2023-03-29T18:46:16.598Z,12.88
2023-03-29T18:48:45.344Z,12.91
2023-03-29T18:51:14.923Z,12.90
2023-03-29T18:53:44.323Z,12.84
2023-03-29T18:56:12.925Z,12.82
2023-03-29T18:58:41.550Z,12.74
2023-03-29T19:01:12.731Z,12.71
2023-03-29T19:03:41.804Z,12.66
2023-03-29T19:06:11.747Z,12.58
2023-03-29T19:08:41.512Z,12.53
2023-03-29T19:11:14.233Z,12.50
2023-03-29T19:13:45.444Z,12.49
2023-03-29T19:16:15.456Z,12.48
2023-03-29T19:18:44.081Z,12.41
2023-03-29T19:21:13.068Z,12.39
2023-03-29T19:23:41.700Z,12.36
2023-03-29T19:26:10.625Z,12.35
2023-03-29T19:28:39.257Z,12.35
2023-03-29T19:31:09.024Z,12.32
2023-03-29T19:33:40.823Z,12.31
2023-03-29T19:36:09.703Z,12.26
2023-03-29T19:38:38.392Z,12.27
2023-03-29T19:41:08.799Z,12.26
2023-03-29T19:43:37.409Z,12.20
2023-03-29T19:46:07.055Z,12.18
2023-03-29T19:48:35.825Z,12.11
2023-03-29T19:51:06.706Z,12.10
2023-03-29T19:53:38.506Z,12.13
2023-03-29T19:56:10.661Z,12.22
2023-03-29T19:58:39.424Z,12.23
2023-03-29T20:01:08.378Z,12.18
2023-03-29T20:03:37.118Z,12.19
2023-03-29T20:06:08.078Z,12.15
2023-03-29T20:08:38.850Z,12.13
2023-03-29T20:11:10.181Z,12.08
2023-03-29T20:13:39.790Z,12.02
2023-03-29T20:16:10.031Z,11.98
2023-03-29T20:18:44.703Z,11.91
2023-03-29T20:21:16.397Z,11.87
2023-03-29T20:23:45.661Z,11.85
2023-03-29T20:26:15.335Z,11.80
2023-03-29T20:28:44.116Z,11.81
2023-03-29T20:31:13.054Z,11.82
2023-03-29T20:33:44.333Z,11.81
2023-03-29T20:36:18.617Z,11.82
2023-03-29T20:38:47.425Z,11.79
2023-03-29T20:41:16.616Z,11.76
2023-03-29T20:43:46.205Z,11.77
2023-03-29T20:46:22.342Z,11.76
2023-03-29T20:48:54.041Z,11.74
2023-03-29T20:51:28.055Z,11.75
2023-03-29T20:54:02.197Z,11.69
2023-03-29T20:56:31.448Z,11.69
2023-03-29T20:59:00.275Z,11.68
2023-03-29T21:01:30.994Z,11.68
2023-03-29T21:03:59.722Z,11.66
2023-03-29T21:06:30.160Z,11.65
2023-03-29T21:08:58.860Z,11.62
2023-03-29T21:11:27.647Z,11.62
2023-03-29T21:13:56.273Z,11.57
2023-03-29T21:16:25.589Z,11.55
2023-03-29T21:18:54.406Z,11.55
2023-03-29T21:21:23.604Z,11.54
2023-03-29T21:23:53.579Z,11.57
2023-03-29T21:26:22.730Z,11.54
2023-03-29T21:28:51.452Z,11.54
2023-03-29T21:31:20.478Z,11.51
2023-03-29T21:33:49.217Z,11.50
2023-03-29T21:36:17.873Z,11.47
2023-03-29T21:38:46.744Z,11.44
2023-03-29T21:41:17.291Z,11.43
2023-03-29T21:43:45.979Z,11.43
2023-03-29T21:46:14.927Z,11.40
2023-03-29T21:48:43.677Z,11.37
2023-03-29T21:51:12.324Z,11.39
2023-03-29T21:53:41.013Z,11.38
2023-03-29T21:56:11.823Z,11.42
2023-03-29T21:58:41.784Z,11.45
2023-03-29T22:01:10.995Z,11.43
2023-03-29T22:03:39.725Z,11.44
2023-03-29T22:06:09.691Z,11.38
2023-03-29T22:08:40.391Z,11.41
2023-03-29T22:11:10.811Z,11.45
2023-03-29T22:13:41.101Z,11.44
2023-03-29T22:16:13.522Z,11.40
2023-03-29T22:18:46.823Z,11.34
2023-03-29T22:21:18.319Z,11.31
2023-03-29T22:23:48.091Z,11.30
2023-03-29T22:26:18.036Z,11.30
2023-03-29T22:28:48.177Z,11.37
2023-03-29T22:31:19.712Z,11.30
2023-03-29T22:33:49.235Z,11.26
2023-03-29T22:36:19.474Z,11.29
2023-03-29T22:38:48.720Z,11.29
2023-03-29T22:41:18.073Z,11.30
2023-03-29T22:43:48.108Z,11.25
2023-03-29T22:46:17.010Z,11.20
2023-03-29T22:48:46.097Z,11.26
2023-03-29T22:51:15.029Z,11.25
2023-03-29T22:53:43.752Z,11.18
2023-03-29T22:56:13.224Z,11.31
2023-03-29T22:58:41.914Z,11.26
2023-03-29T23:01:12.035Z,11.27
2023-03-29T23:03:40.714Z,11.13
2023-03-29T23:06:09.340Z,11.20
2023-03-29T23:08:37.953Z,11.23
2023-03-29T23:11:07.381Z,11.26
2023-03-29T23:13:36.286Z,11.18
2023-03-29T23:16:05.442Z,11.20
2023-03-29T23:18:37.402Z,11.39
2023-03-29T23:21:08.836Z,11.39
2023-03-29T23:23:38.188Z,11.40
2023-03-29T23:26:08.332Z,11.28
2023-03-29T23:28:37.266Z,11.27
2023-03-29T23:31:09.588Z,11.27
2023-03-29T23:33:42.545Z,11.25
2023-03-29T23:36:13.302Z,11.36
2023-03-29T23:38:42.660Z,11.37
2023-03-29T23:41:12.740Z,11.32
2023-03-29T23:43:42.696Z,11.41
2023-03-29T23:46:13.332Z,11.34
2023-03-29T23:48:47.103Z,11.34
2023-03-29T23:51:18.138Z,11.26
2023-03-29T23:53:47.339Z,11.29
2023-03-29T23:56:16.222Z,11.31
2023-03-29T23:58:45.537Z,11.31
